Latest Weather Observations for Cape Sorell

IDT60801

Issued at 2:02 pm EDT Sunday 21 December 2014 (issued every 30 minutes, with the page automatically refreshed every 10 minutes)

About weather observations | Map of weather stations | Latest weather observations for TAS | Other Formats
Station Details ID: 097000 Name: CAPE SORELL Lat: -42.20 Lon: 145.17 Height: 19.3 m
Data from the previous 72 hours. | See also: Recent months at Cape Sorell
Date/Time
EDT
Temp
°C
App
Temp
°C
Dew
Point
Rel
Hum
%
Delta-T
°C
Wind Press
QNH
hPa
Press
MSL
hPa
Rain
since 9 am
mm
Dir
 
Spd
km/h
Gust
km/h
Spd
kts
Gust
kts
21/02:00pm 16.3 13.6 14.5 89 1.0 NW 22 32 12 17 1013.6 1013.6 0.0
21/01:49pm 16.7 12.0 14.9 89 1.0 NW 33 52 18 28 1013.4 1013.4 0.0
21/01:30pm 16.5 11.5 14.0 85 1.4 WNW 33 44 18 24 1013.0 1013.0 0.0
21/01:00pm 18.4 14.8 15.3 82 1.8 NW 28 37 15 20 1012.8 1012.8 0.0
21/12:30pm 17.2 13.0 13.5 79 2.1 NNW 28 35 15 19 1012.6 1012.6 0.0
21/12:00pm 16.6 12.5 12.8 78 2.1 NNW 26 35 14 19 1012.6 1012.6 0.0
21/11:30am 16.7 12.4 13.2 80 2.0 NNW 28 35 15 19 1013.3 1013.3 0.0
21/11:00am 17.0 14.1 13.9 82 1.8 NNW 22 30 12 16 1013.4 1013.4 0.0
21/10:30am 16.1 13.8 13.0 82 1.7 NNW 17 24 9 13 1014.2 1014.2 0.0
21/10:00am 16.7 14.3 13.8 83 1.6 NNW 19 24 10 13 1014.4 1014.4 0.0
21/09:30am 16.1 14.1 13.8 86 1.3 NNW 17 22 9 12 1014.7 1014.7 0.0
21/09:00am 15.3 14.8 13.8 91 0.8 N 9 13 5 7 1014.8 1014.8 0.6
21/08:30am 14.0 12.0 12.7 92 0.7 N 15 19 8 10 1014.3 1014.3 0.6
21/08:00am 13.7 11.0 12.8 94 0.5 N 19 22 10 12 1014.0 1014.0 0.6
21/07:30am 12.8 9.4 12.6 99 0.1 NNE 22 28 12 15 1013.5 1013.5 0.6
21/07:00am 11.8 9.1 11.8 100 0.0 NE 17 24 9 13 1013.6 1013.6 0.6
21/06:30am 11.5 8.7 11.5 100 0.0 NE 17 22 9 12 1014.0 1014.0 0.6
21/06:00am 11.0 8.9 11.0 100 0.0 ENE 13 17 7 9 1013.9 1013.9 0.6
21/05:30am 12.1 10.3 12.1 100 0.0 NE 13 19 7 10 1014.2 1014.2 0.6
21/05:00am 12.8 12.3 12.8 100 0.0 N 7 9 4 5 1015.3 1015.3 0.6
21/04:30am 12.2 10.8 12.2 100 0.0 NNE 11 13 6 7 1014.5 1014.5 0.6
21/04:00am 11.9 9.3 11.9 100 0.0 NNE 17 20 9 11 1014.0 1014.0 0.6
21/03:30am 12.1 9.9 12.1 100 0.0 NNE 15 19 8 10 1014.0 1014.0 0.6
21/03:00am 12.4 9.9 12.4 100 0.0 NNE 17 20 9 11 1013.9 1013.9 0.6
21/02:30am 12.4 10.7 12.4 100 0.0 NE 13 17 7 9 1014.0 1014.0 0.6
21/02:00am 12.9 11.7 12.7 99 0.1 NE 11 13 6 7 1014.3 1014.3 0.6
21/01:30am 12.9 11.2 12.3 96 0.3 NNE 13 15 7 8 1014.4 1014.4 0.6
21/01:00am 12.4 10.4 11.5 94 0.5 NE 13 15 7 8 1014.9 1014.9 0.6
21/12:30am 11.7 10.5 9.4 86 1.2 N 6 9 3 5 1015.5 1015.5 0.6
21/12:00am 12.9 12.7 10.6 86 1.2 SW 2 6 1 3 1015.9 1015.8 0.6
 
Date/Time
EDT
Temp
°C
App
Temp
°C
Dew
Point
Rel
Hum
%
Delta-T
°C
Wind Press
QNH
hPa
Press
MSL
hPa
Rain
since 9 am
mm
Dir
 
Spd
km/h
Gust
km/h
Spd
kts
Gust
kts
20/11:30pm 12.7 12.8 10.2 85 1.3 CALM 0 0 0 0 1016.1 1016.0 0.6
20/11:00pm 12.8 12.6 10.3 85 1.3 SW 2 4 1 2 1016.1 1016.0 0.6
20/10:30pm 12.7 11.7 10.2 85 1.3 SW 6 7 3 4 1016.2 1016.1 0.6
20/10:00pm 12.6 11.5 10.0 84 1.3 SW 6 9 3 5 1016.1 1016.0 0.6
20/09:30pm 13.0 11.5 10.4 84 1.3 SW 9 11 5 6 1016.0 1015.9 0.6
20/09:00pm 13.4 11.9 10.6 83 1.5 SW 9 13 5 7 1015.9 1015.8 0.6
20/08:30pm 14.3 13.0 11.1 81 1.7 SW 9 11 5 6 1016.1 1016.0 0.6
20/08:00pm 15.2 13.7 11.8 80 1.8 SW 11 13 6 7 1016.1 1016.0 0.6
20/07:30pm 15.9 14.6 12.6 81 1.8 WSW 11 13 6 7 1016.1 1016.0 0.6
20/07:00pm 16.2 15.0 12.7 80 1.9 SW 11 15 6 8 1015.9 1015.8 0.6
20/06:30pm 15.3 14.0 12.4 83 1.6 SW 11 15 6 8 1015.9 1015.8 0.6
20/06:00pm 15.4 14.8 12.2 81 1.7 WSW 7 9 4 5 1015.9 1015.8 0.6
20/05:30pm 15.9 15.1 11.7 76 2.3 WSW 7 11 4 6 1015.9 1015.8 0.6
20/05:00pm 18.1 17.7 14.2 78 2.2 WSW 9 13 5 7 1015.9 1015.8 0.6
20/04:30pm 17.1 16.0 13.2 78 2.2 WSW 11 15 6 8 1016.0 1015.9 0.6
20/04:00pm 17.4 16.6 14.1 81 1.9 WSW 11 15 6 8 1016.1 1016.0 0.6
20/03:30pm 17.6 16.5 15.2 86 1.4 WSW 15 17 8 9 1016.1 1016.0 0.6
20/03:00pm 17.2 16.6 15.7 91 0.9 WSW 13 17 7 9 1016.1 1016.0 0.6
20/02:30pm 17.0 15.8 16.2 95 0.5 SW 17 20 9 11 1015.9 1015.8 0.6
20/02:00pm 16.5 15.5 16.5 100 0.0 SW 17 20 9 11 1015.8 1015.7 0.6
20/01:30pm 16.4 14.9 16.4 100 0.0 SW 19 20 10 11 1015.8 1015.7 0.6
20/01:00pm 15.5 13.7 15.5 100 0.0 SW 19 22 10 12 1015.5 1015.5 0.6
20/12:30pm 15.3 13.8 15.3 100 0.0 SW 17 20 9 11 1015.4 1015.4 0.6
20/12:00pm 13.1 7.8 13.1 100 0.0 SW 33 41 18 22 1015.3 1015.3 0.6
20/11:30am 13.9 10.2 13.9 100 0.0 SW 26 32 14 17 1015.1 1015.1 0.6
20/11:00am 14.5 12.1 14.5 100 0.0 WSW 20 24 11 13 1014.8 1014.8 0.2
20/10:30am 14.8 12.6 14.8 100 0.0 WSW 20 35 11 19 1014.5 1014.5 0.0
20/10:00am 15.7 13.8 15.7 100 0.0 WSW 20 24 11 13 1014.4 1014.4 0.0
20/09:30am 14.9 12.3 14.9 100 0.0 WSW 22 30 12 16 1014.3 1014.3 0.0
20/09:00am 13.9 10.2 13.9 100 0.0 WSW 26 32 14 17 1013.9 1013.9 3.6
20/08:30am 14.2 11.0 14.2 100 0.0 W 24 33 13 18 1013.7 1013.7 3.6
20/08:00am 14.3 10.7 14.3 100 0.0 WSW 26 32 14 17 1013.2 1013.2 3.6
20/07:30am 14.3 10.4 14.3 100 0.0 WSW 28 35 15 19 1012.8 1012.8 3.6
20/07:00am 13.9 9.8 13.9 100 0.0 WSW 28 35 15 19 1012.5 1012.5 3.6
20/06:30am 13.9 9.8 13.9 100 0.0 WSW 28 33 15 18 1012.3 1012.3 3.6
20/06:00am 13.7 9.2 13.7 100 0.0 WSW 30 37 16 20 1012.1 1012.1 3.6
20/05:30am 13.6 10.2 13.6 100 0.0 WSW 24 32 13 17 1011.8 1011.8 3.6
20/05:00am 13.5 9.3 13.5 100 0.0 W 28 39 15 21 1011.7 1011.7 3.2
20/04:30am 13.9 9.8 13.9 100 0.0 W 28 35 15 19 1011.6 1011.6 2.6
20/04:00am 13.6 8.7 13.6 100 0.0 WNW 32 39 17 21 1011.8 1011.8 2.6
20/03:30am 13.7 9.6 13.7 100 0.0 WNW 28 35 15 19 1012.0 1012.0 2.6
20/03:00am 13.5 8.5 13.5 100 0.0 WNW 32 39 17 21 1012.2 1012.2 2.6
20/02:30am 13.3 8.6 13.3 100 0.0 WNW 30 37 16 20 1012.6 1012.6 2.2
20/02:00am 13.3 8.1 13.3 100 0.0 WNW 33 43 18 23 1013.0 1013.0 2.0
20/01:30am 13.2 9.6 13.2 100 0.0 NW 24 35 13 19 1013.3 1013.3 2.0
20/01:00am 13.6 10.9 13.6 100 0.0 NW 20 30 11 16 1013.7 1013.7 2.0
20/12:30am 13.1 8.8 13.1 100 0.0 NW 28 39 15 21 1013.9 1013.9 1.8
20/12:00am 13.1 9.1 13.1 100 0.0 NNW 26 33 14 18 1014.2 1014.2 1.2
 
Date/Time
EDT
Temp
°C
App
Temp
°C
Dew
Point
Rel
Hum
%
Delta-T
°C
Wind Press
QNH
hPa
Press
MSL
hPa
Rain
since 9 am
mm
Dir
 
Spd
km/h
Gust
km/h
Spd
kts
Gust
kts
19/11:30pm 12.9 9.3 12.9 100 0.0 NNW 24 35 13 19 1014.6 1014.6 1.0
19/11:00pm 12.5 9.0 12.3 99 0.1 NNW 22 28 12 15 1014.8 1014.8 0.6
19/10:30pm 12.3 7.8 11.4 94 0.5 NW 26 32 14 17 1015.3 1015.3 0.6
19/10:00pm 12.6 7.5 10.5 87 1.1 NW 28 39 15 21 1015.4 1015.4 0.2
19/09:30pm 13.0 9.3 10.2 83 1.4 NW 20 28 11 15 1015.3 1015.3 0.0
19/09:00pm 13.8 10.2 9.8 77 2.1 NW 19 28 10 15 1015.4 1015.4 0.0
19/08:30pm 13.5 9.8 9.4 76 2.1 NW 19 24 10 13 1015.4 1015.4 0.0
19/08:00pm 13.9 8.3 8.9 72 2.5 WNW 28 35 15 19 1015.2 1015.2 0.0
19/07:30pm 13.7 9.5 8.3 70 2.7 WNW 20 26 11 14 1015.2 1015.2 0.0
19/07:00pm 13.9 10.2 8.1 68 2.9 NW 17 22 9 12 1015.0 1015.0 0.0
19/06:30pm 14.1 10.7 9.1 72 2.5 WNW 17 24 9 13 1015.0 1015.0 0.0
19/06:00pm 13.8 10.7 9.0 73 2.4 NNW 15 19 8 10 1015.0 1015.0 0.0
19/05:30pm 13.6 11.2 8.7 72 2.5 NNW 11 17 6 9 1015.0 1015.0 0.0
19/05:00pm 13.6 10.3 8.2 70 2.7 NW 15 22 8 12 1015.3 1015.3 0.0
19/04:30pm 14.0 9.8 8.4 69 2.8 NW 20 28 11 15 1015.4 1015.4 0.0
19/04:00pm 14.2 9.5 7.7 65 3.2 WNW 22 33 12 18 1015.2 1015.2 0.0
19/03:30pm 15.0 10.7 7.1 59 3.9 WNW 19 26 10 14 1015.2 1015.2 0.0
19/03:00pm 14.7 10.2 6.0 56 4.2 WNW 19 24 10 13 1015.2 1015.2 0.0
19/02:30pm 17.1 13.2 7.2 52 4.9 WNW 17 20 9 11 1015.1 1015.1 0.0
19/02:00pm 16.1 12.4 6.5 53 4.7 W 15 22 8 12 1015.0 1015.0 0.0
19/01:30pm 17.5 14.0 7.3 51 5.1 WNW 15 19 8 10 1014.9 1014.9 0.0
19/01:00pm 16.8 13.7 7.2 53 4.8 W 13 17 7 9 1015.0 1015.0 0.0
19/12:30pm 17.1 14.4 7.5 53 4.8 W 11 17 6 9 1014.8 1014.8 0.0
19/12:00pm 15.1 10.9 5.9 54 4.4 WSW 17 20 9 11 1014.8 1014.8 0.0
19/11:30am 15.5 11.5 6.8 56 4.3 WSW 17 22 9 12 1014.7 1014.7 0.0
19/11:00am 15.2 10.5 6.2 55 4.3 WSW 20 26 11 14 1014.5 1014.5 0.0
19/10:30am 14.5 9.9 6.6 59 3.8 WSW 20 26 11 14 1014.3 1014.3 0.0
19/10:00am 14.1 10.1 8.1 67 3.0 WSW 19 22 10 12 1014.3 1014.3 0.0
19/09:30am 13.8 9.7 8.6 71 2.6 SW 20 26 11 14 1014.1 1014.1 0.0
19/09:00am 13.4 8.9 8.5 72 2.4 SW 22 30 12 16 1013.8 1013.8 5.4
19/08:30am 12.9 8.9 8.4 74 2.2 SW 19 26 10 14 1013.6 1013.6 5.4
19/08:00am 12.0 7.2 7.3 73 2.3 SW 22 28 12 15 1013.1 1013.1 5.4
19/07:30am 11.9 7.2 7.8 76 2.0 SW 22 30 12 16 1012.7 1012.7 5.4
19/07:00am 11.7 6.8 8.4 80 1.6 SW 24 30 13 16 1012.1 1012.1 5.4
19/06:30am 11.6 6.3 8.6 82 1.5 SW 26 32 14 17 1011.8 1011.8 5.4
19/06:00am 11.5 4.4 8.2 80 1.6 SW 35 43 19 23 1011.5 1011.5 5.4
19/05:30am 11.4 4.7 7.3 76 2.0 SW 32 39 17 21 1011.1 1011.1 5.4
19/05:00am 11.2 5.8 8.1 81 1.5 SW 26 32 14 17 1010.7 1010.7 5.4
19/04:30am 11.4 3.7 8.6 83 1.4 SW 39 46 21 25 1010.3 1010.3 5.4
19/04:00am 11.4 5.7 8.4 82 1.5 SW 28 33 15 18 1010.1 1010.1 5.4
19/03:30am 11.5 5.0 8.9 84 1.3 SW 33 39 18 21 1010.0 1010.0 5.4
19/03:00am 11.6 5.4 9.3 86 1.2 SW 32 39 17 21 1009.8 1009.8 5.4
19/02:30am 11.5 5.4 9.6 88 1.0 SW 32 35 17 19 1009.6 1009.6 5.4
19/02:00am 11.5 5.8 9.9 90 0.8 SW 30 33 16 18 1009.4 1009.4 5.4
19/01:30am 11.6 6.0 10.2 91 0.7 SW 30 35 16 19 1009.3 1009.3 5.4
19/01:00am 10.9 7.2 9.5 91 0.7 SW 19 28 10 15 1009.2 1009.2 5.4
19/12:30am 10.8 4.9 8.9 88 0.9 WSW 30 39 16 21 1009.0 1009.0 5.2
19/12:00am 10.3 2.8 7.9 85 1.2 SW 37 57 20 31 1008.6 1008.6 5.0
 
Date/Time
EDT
Temp
°C
App
Temp
°C
Dew
Point
Rel
Hum
%
Delta-T
°C
Wind Press
QNH
hPa
Press
MSL
hPa
Rain
since 9 am
mm
Dir
 
Spd
km/h
Gust
km/h
Spd
kts
Gust
kts
18/11:49pm 12.9 7.0 9.2 78 1.9 SW 30 54 16 29 1008.3 1008.3 3.2
18/11:30pm 12.2 6.3 7.7 74 2.2 WSW 28 37 15 20 1008.4 1008.4 3.2
18/11:00pm 12.8 6.3 8.3 74 2.2 WSW 32 37 17 20 1008.2 1008.2 3.2
18/10:30pm 13.1 5.7 8.2 72 2.4 WSW 37 43 20 23 1008.0 1008.0 3.2
18/10:00pm 13.2 6.7 8.3 72 2.4 WSW 32 39 17 21 1007.9 1007.9 3.2
18/09:30pm 13.3 6.3 8.6 73 2.4 WSW 35 43 19 23 1007.5 1007.5 3.2
18/09:00pm 13.3 8.0 8.4 72 2.5 WSW 26 33 14 18 1007.2 1007.2 3.2
18/08:30pm 13.4 7.4 8.5 72 2.5 WSW 30 39 16 21 1007.0 1007.0 3.2
18/08:00pm 13.6 7.4 8.0 69 2.8 WSW 30 33 16 18 1006.5 1006.5 3.2
18/07:30pm 14.3 7.5 9.3 72 2.6 WSW 35 39 19 21 1006.0 1006.0 3.2
18/07:00pm 14.4 7.7 9.6 73 2.5 WSW 35 41 19 22 1005.4 1005.4 3.2
18/06:30pm 14.6 7.5 9.4 71 2.7 WSW 37 44 20 24 1004.7 1004.7 3.2
18/06:00pm 14.8 8.6 10.2 74 2.4 WSW 33 41 18 22 1004.3 1004.3 3.2
18/05:30pm 15.4 10.3 11.8 79 1.9 WSW 30 39 16 21 1003.9 1003.9 3.2
18/05:00pm 14.8 9.9 12.5 86 1.3 WSW 30 39 16 21 1003.4 1003.4 3.2
18/04:30pm 14.2 9.2 12.2 88 1.1 WNW 30 39 16 21 1003.0 1003.0 3.2
18/04:00pm 15.3 10.6 14.8 97 0.3 WNW 33 43 18 23 1002.9 1002.9 3.2
18/03:30pm 13.9 9.4 13.9 100 0.0 NW 30 37 16 20 1002.6 1002.6 3.2
18/03:00pm 12.7 8.5 12.4 98 0.2 NW 26 37 14 20 1002.4 1002.4 3.2
18/02:30pm 13.6 8.6 13.4 99 0.1 NW 32 41 17 22 1002.2 1002.2 2.0

Other Formats:

Comma delimited format used in spreadsheet applications
http://www.bom.gov.au/fwo/IDT60801/IDT60801.94974.axf

JavaScript Object Notation format (JSON) in row-major order
http://www.bom.gov.au/fwo/IDT60801/IDT60801.94974.json